createdAt,value
2019-02-21T00:00:11.737Z,15.80
2019-02-21T00:02:41.718Z,15.68
2019-02-21T00:05:10.119Z,16.57
2019-02-21T00:07:38.526Z,15.43
2019-02-21T00:10:07.649Z,16.70
2019-02-21T00:12:37.797Z,17.92
2019-02-21T00:15:07.438Z,18.42
2019-02-21T00:17:37.465Z,17.77
2019-02-21T00:20:06.087Z,16.45
2019-02-21T00:22:37.602Z,14.98
2019-02-21T00:25:07.609Z,15.70
2019-02-21T00:27:35.993Z,14.50
2019-02-21T00:30:05.141Z,14.33
2019-02-21T00:32:33.563Z,14.10
2019-02-21T00:35:03.640Z,13.95
2019-02-21T00:37:32.029Z,13.95
2019-02-21T00:40:00.498Z,14.28
2019-02-21T00:42:28.875Z,14.10
2019-02-21T00:44:57.257Z,13.20
2019-02-21T00:47:25.635Z,14.05
2019-02-21T00:49:54.011Z,13.48
2019-02-21T00:52:22.438Z,13.30
2019-02-21T00:54:50.827Z,14.40
2019-02-21T00:57:19.191Z,13.95
2019-02-21T00:59:47.604Z,13.43
2019-02-21T01:02:15.985Z,14.25
2019-02-21T01:04:44.446Z,14.10
2019-02-21T01:07:12.807Z,12.90
2019-02-21T01:09:41.198Z,14.75
2019-02-21T01:12:09.597Z,12.60
2019-02-21T01:14:38.001Z,13.65
2019-02-21T01:17:06.431Z,13.50
2019-02-21T01:19:34.784Z,13.60
2019-02-21T01:22:03.986Z,13.48
2019-02-21T01:24:32.380Z,13.43
2019-02-21T01:27:00.743Z,12.75
2019-02-21T01:29:29.182Z,13.85
2019-02-21T01:31:57.579Z,12.78
2019-02-21T01:34:26.001Z,13.43
2019-02-21T01:36:54.350Z,12.68
2019-02-21T01:39:22.843Z,12.90
2019-02-21T01:41:51.227Z,12.70
2019-02-21T01:44:19.607Z,13.38
2019-02-21T01:46:48.018Z,12.88
2019-02-21T01:49:16.450Z,12.60
2019-02-21T01:51:44.914Z,13.20
2019-02-21T01:54:13.247Z,13.88
2019-02-21T01:56:41.724Z,12.68
2019-02-21T01:59:10.017Z,12.95
2019-02-21T02:01:38.418Z,12.60
2019-02-21T02:04:06.807Z,13.10
2019-02-21T02:06:35.226Z,12.40
2019-02-21T02:09:05.266Z,12.55
2019-02-21T02:11:33.707Z,12.73
2019-02-21T02:14:04.917Z,11.75
2019-02-21T02:16:33.417Z,13.45
2019-02-21T02:19:03.556Z,12.10
2019-02-21T02:21:31.927Z,11.85
2019-02-21T02:24:00.339Z,12.30
2019-02-21T02:26:28.718Z,11.93
2019-02-21T02:28:57.124Z,11.78
2019-02-21T02:31:25.512Z,11.93
2019-02-21T02:33:53.918Z,13.53
2019-02-21T02:36:22.307Z,13.03
2019-02-21T02:38:50.710Z,13.93
2019-02-21T02:41:19.129Z,12.40
2019-02-21T02:43:47.504Z,13.03
2019-02-21T02:46:15.916Z,13.35
2019-02-21T02:48:44.308Z,12.47
2019-02-21T02:51:12.672Z,12.53
2019-02-21T02:53:41.125Z,12.63
2019-02-21T02:56:09.463Z,12.70
2019-02-21T02:58:37.871Z,12.45
2019-02-21T03:01:09.125Z,12.73
2019-02-21T03:03:37.531Z,12.35
2019-02-21T03:06:05.945Z,13.22
2019-02-21T03:08:34.328Z,12.30
2019-02-21T03:11:02.734Z,12.85
2019-02-21T03:13:31.152Z,12.55
2019-02-21T03:16:01.151Z,13.18
2019-02-21T03:18:29.548Z,12.65
2019-02-21T03:20:57.959Z,12.30
2019-02-21T03:23:26.331Z,12.60
2019-02-21T03:25:54.739Z,13.10
2019-02-21T03:28:23.134Z,13.35
2019-02-21T03:30:51.621Z,12.75
2019-02-21T03:33:20.017Z,13.20
2019-02-21T03:35:48.392Z,12.73
2019-02-21T03:38:16.804Z,11.45
2019-02-21T03:40:45.205Z,14.07
2019-02-21T03:43:13.619Z,13.20
2019-02-21T03:45:42.008Z,13.65
2019-02-21T03:48:10.389Z,13.15
2019-02-21T03:50:38.764Z,12.68
2019-02-21T03:53:07.159Z,12.03
2019-02-21T03:55:35.557Z,12.20
2019-02-21T03:58:03.937Z,12.93
2019-02-21T04:00:32.332Z,12.40
2019-02-21T04:03:00.718Z,13.15
2019-02-21T04:05:29.115Z,12.80
2019-02-21T04:07:57.497Z,12.98
2019-02-21T04:10:25.893Z,13.95
2019-02-21T04:12:54.326Z,13.98
2019-02-21T04:15:22.681Z,14.55
2019-02-21T04:17:51.063Z,13.98
2019-02-21T04:20:19.443Z,15.55
2019-02-21T04:22:47.892Z,14.25
2019-02-21T04:25:16.263Z,14.05
2019-02-21T04:27:44.639Z,14.87
2019-02-21T04:30:13.057Z,13.70
2019-02-21T04:32:41.433Z,14.80
2019-02-21T04:35:09.835Z,13.38
2019-02-21T04:37:38.216Z,14.63
2019-02-21T04:40:07.108Z,14.50
2019-02-21T04:42:35.537Z,14.45
2019-02-21T04:45:04.314Z,15.03
2019-02-21T04:47:32.689Z,14.18
2019-02-21T04:50:01.103Z,14.43
2019-02-21T04:52:29.478Z,14.30
2019-02-21T04:54:57.878Z,14.47
2019-02-21T04:57:26.357Z,15.53
2019-02-21T04:59:54.735Z,14.75
2019-02-21T05:02:29.337Z,15.15
2019-02-21T05:04:53.289Z,15.38
2019-02-21T05:07:21.706Z,15.13
2019-02-21T05:09:57.869Z,14.40
2019-02-21T05:12:20.187Z,15.18
2019-02-21T05:14:48.641Z,15.83
2019-02-21T05:17:17.019Z,16.95
2019-02-21T05:19:45.427Z,17.27
2019-02-21T05:22:13.813Z,16.60
2019-02-21T05:24:42.318Z,16.90
2019-02-21T05:27:12.339Z,17.30
2019-02-21T05:29:40.740Z,17.00
2019-02-21T05:32:10.783Z,16.75
2019-02-21T05:34:59.218Z,17.37
2019-02-21T05:37:32.003Z,16.65
2019-02-21T05:40:18.298Z,17.23
2019-02-21T05:43:00.043Z,18.23
2019-02-21T05:45:39.023Z,17.52
2019-02-21T05:48:15.036Z,18.48
2019-02-21T05:50:45.056Z,17.57
2019-02-21T05:53:27.039Z,17.80
2019-02-21T05:55:57.233Z,17.00
2019-02-21T05:58:42.281Z,18.75
2019-02-21T06:01:27.348Z,18.05
2019-02-21T06:04:00.335Z,18.30
2019-02-21T06:06:30.385Z,17.85
2019-02-21T06:09:00.427Z,18.42
2019-02-21T06:11:45.468Z,18.48
2019-02-21T06:14:32.038Z,17.98
2019-02-21T06:17:10.642Z,19.05
2019-02-21T06:19:48.145Z,17.90
2019-02-21T06:22:33.492Z,19.17
2019-02-21T06:25:09.342Z,17.60
2019-02-21T06:27:42.340Z,16.87
2019-02-21T06:30:18.228Z,17.70
2019-02-21T06:32:46.609Z,18.42
2019-02-21T06:35:15.034Z,18.55
2019-02-21T06:37:43.412Z,18.95
2019-02-21T06:40:11.839Z,18.92
2019-02-21T06:42:40.220Z,20.02
2019-02-21T06:45:08.587Z,19.80
2019-02-21T06:47:37.003Z,19.30
2019-02-21T06:50:06.023Z,19.48
2019-02-21T06:52:34.472Z,18.60
2019-02-21T06:55:02.829Z,18.27
2019-02-21T06:57:31.214Z,18.42
2019-02-21T06:59:59.594Z,19.48
2019-02-21T07:02:28.292Z,18.25
2019-02-21T07:04:56.922Z,18.92
2019-02-21T07:07:25.428Z,17.87
2019-02-21T07:09:53.802Z,19.42
2019-02-21T07:12:22.242Z,18.57
2019-02-21T07:14:50.623Z,18.62
2019-02-21T07:17:19.000Z,17.37
2019-02-21T07:19:47.385Z,20.20
2019-02-21T07:22:18.070Z,19.35
2019-02-21T07:24:47.772Z,20.70
2019-02-21T07:27:16.126Z,21.00
2019-02-21T07:29:44.529Z,19.52
2019-02-21T07:32:12.949Z,22.35
2019-02-21T07:34:41.341Z,19.32
2019-02-21T07:37:18.045Z,19.40
2019-02-21T07:39:39.831Z,19.57
2019-02-21T07:42:08.243Z,24.07
2019-02-21T07:44:36.670Z,23.35
2019-02-21T07:47:05.047Z,19.77
2019-02-21T07:49:33.472Z,20.12
2019-02-21T07:52:01.839Z,20.55
2019-02-21T07:54:30.256Z,20.72
2019-02-21T07:56:58.635Z,21.77
2019-02-21T07:59:27.030Z,19.57
2019-02-21T08:01:55.429Z,19.73
2019-02-21T08:04:23.813Z,21.95
2019-02-21T08:06:55.291Z,20.27
2019-02-21T08:09:22.286Z,20.77
2019-02-21T08:11:50.680Z,21.45
2019-02-21T08:14:19.080Z,20.62
2019-02-21T08:16:47.485Z,21.40
2019-02-21T08:19:15.871Z,22.17
2019-02-21T08:21:44.316Z,20.82
2019-02-21T08:24:12.855Z,19.67
2019-02-21T08:26:41.259Z,19.17
2019-02-21T08:29:09.656Z,21.35
2019-02-21T08:31:38.067Z,19.20
2019-02-21T08:34:08.088Z,22.10
2019-02-21T08:36:36.519Z,22.25
2019-02-21T08:39:06.951Z,19.45
2019-02-21T08:41:35.337Z,18.77
2019-02-21T08:44:03.741Z,20.35
2019-02-21T08:46:32.123Z,20.12
2019-02-21T08:49:00.519Z,20.15
2019-02-21T08:51:29.018Z,22.37
2019-02-21T08:53:57.429Z,19.95
2019-02-21T08:56:25.808Z,19.92
2019-02-21T08:58:54.246Z,20.23
2019-02-21T09:01:22.595Z,19.05
2019-02-21T09:03:50.968Z,20.17
2019-02-21T09:06:19.380Z,20.43
2019-02-21T09:08:47.784Z,22.05
2019-02-21T09:11:16.184Z,19.73
2019-02-21T09:13:44.627Z,20.92
2019-02-21T09:16:13.079Z,19.70
2019-02-21T09:18:41.436Z,20.27
2019-02-21T09:21:09.853Z,20.62
2019-02-21T09:23:38.233Z,21.55
2019-02-21T09:26:06.640Z,21.45
2019-02-21T09:28:35.022Z,21.30
2019-02-21T09:31:03.438Z,21.75
2019-02-21T09:33:31.854Z,22.95
2019-02-21T09:36:00.231Z,32.95
2019-02-21T09:38:28.625Z,51.73
2019-02-21T09:40:57.017Z,34.25
2019-02-21T09:43:25.395Z,23.75
2019-02-21T09:45:54.094Z,29.98
2019-02-21T09:48:22.604Z,25.60
2019-02-21T09:50:50.980Z,26.90
2019-02-21T09:53:19.357Z,24.05
2019-02-21T09:55:50.199Z,23.83
2019-02-21T09:58:17.802Z,25.45
2019-02-21T10:00:46.209Z,24.55
2019-02-21T10:03:14.592Z,25.50
2019-02-21T10:05:43.019Z,24.02
2019-02-21T10:08:11.398Z,25.57
2019-02-21T10:10:39.771Z,25.70
2019-02-21T10:13:08.186Z,25.50
2019-02-21T10:15:37.476Z,28.45
2019-02-21T10:18:05.863Z,25.72
2019-02-21T10:20:34.257Z,28.70
2019-02-21T10:23:02.658Z,27.25
2019-02-21T10:25:31.888Z,28.67
2019-02-21T10:28:00.297Z,28.27
2019-02-21T10:30:28.713Z,29.70
2019-02-21T10:32:57.095Z,29.82
2019-02-21T10:35:25.506Z,28.20
2019-02-21T10:37:53.946Z,28.90
2019-02-21T10:40:22.323Z,27.02
2019-02-21T10:42:50.716Z,26.25
2019-02-21T10:45:20.675Z,27.17
2019-02-21T10:47:49.084Z,27.60
2019-02-21T10:50:20.602Z,24.00
2019-02-21T10:52:48.988Z,26.57
2019-02-21T10:55:17.922Z,27.80
2019-02-21T10:57:46.340Z,28.57
2019-02-21T11:00:23.619Z,28.32
2019-02-21T11:02:51.993Z,29.85
2019-02-21T11:05:20.460Z,28.50
2019-02-21T11:07:48.820Z,32.78
2019-02-21T11:10:25.424Z,29.90
2019-02-21T11:12:53.805Z,30.37
2019-02-21T11:15:24.051Z,30.32
2019-02-21T11:17:52.435Z,29.15
2019-02-21T11:20:21.679Z,29.30
2019-02-21T11:22:50.079Z,29.12
2019-02-21T11:25:18.464Z,27.02
2019-02-21T11:27:46.843Z,28.47
2019-02-21T11:30:19.651Z,27.48
2019-02-21T11:32:48.031Z,28.23
2019-02-21T11:35:16.476Z,27.40
2019-02-21T11:37:47.179Z,26.82
2019-02-21T11:40:16.306Z,27.50
2019-02-21T11:42:45.068Z,28.80
2019-02-21T11:45:17.784Z,29.32
2019-02-21T11:47:46.149Z,29.12
2019-02-21T11:50:18.419Z,29.52
2019-02-21T11:52:46.902Z,28.87
2019-02-21T11:55:23.675Z,27.30
2019-02-21T11:57:52.082Z,27.73
2019-02-21T12:00:23.893Z,27.10
2019-02-21T12:02:52.324Z,27.58
2019-02-21T12:05:30.545Z,27.40
2019-02-21T12:07:50.784Z,27.05
2019-02-21T12:10:19.173Z,30.77
2019-02-21T12:12:47.564Z,28.95
2019-02-21T12:15:16.693Z,28.65
2019-02-21T12:17:45.152Z,30.43
2019-02-21T12:20:15.250Z,29.70
2019-02-21T12:22:43.651Z,27.62
2019-02-21T12:25:14.326Z,28.50
2019-02-21T12:27:42.691Z,29.32
2019-02-21T12:30:16.144Z,28.80
2019-02-21T12:32:44.568Z,28.70
2019-02-21T12:35:13.053Z,30.32
2019-02-21T12:37:41.428Z,27.25
2019-02-21T12:40:12.949Z,29.25
2019-02-21T12:42:41.323Z,27.35
2019-02-21T12:45:12.347Z,28.92
2019-02-21T12:47:49.367Z,31.20
2019-02-21T12:50:13.487Z,29.80
2019-02-21T12:52:41.865Z,32.85
2019-02-21T12:55:11.322Z,32.10
2019-02-21T12:57:39.724Z,30.32
2019-02-21T13:00:16.864Z,30.37
2019-02-21T13:02:45.263Z,29.15
2019-02-21T13:05:13.662Z,32.48
2019-02-21T13:07:42.056Z,31.17
2019-02-21T13:10:13.313Z,28.35
2019-02-21T13:12:43.416Z,29.48
2019-02-21T13:15:13.491Z,29.60
2019-02-21T13:17:41.864Z,29.00
2019-02-21T13:20:11.673Z,27.15
2019-02-21T13:22:40.089Z,26.20
2019-02-21T13:25:11.060Z,25.75
2019-02-21T13:27:39.454Z,27.70
2019-02-21T13:30:12.880Z,28.70
2019-02-21T13:32:41.255Z,28.15
2019-02-21T13:35:10.600Z,30.80
2019-02-21T13:37:38.989Z,32.53
2019-02-21T13:40:12.896Z,35.83
2019-02-21T13:42:41.275Z,35.35
2019-02-21T13:45:11.759Z,37.40
2019-02-21T13:47:41.529Z,38.73
2019-02-21T13:50:12.351Z,34.35
2019-02-21T13:52:40.795Z,33.13
2019-02-21T13:55:09.209Z,39.70
2019-02-21T13:57:37.587Z,32.67
2019-02-21T14:00:11.777Z,36.53
2019-02-21T14:02:40.149Z,42.90
2019-02-21T14:05:08.583Z,42.03
2019-02-21T14:07:37.441Z,40.05
2019-02-21T14:10:08.762Z,40.45
2019-02-21T14:12:37.207Z,38.38
2019-02-21T14:15:08.932Z,37.88
2019-02-21T14:17:37.307Z,39.60
2019-02-21T14:20:07.699Z,41.35
2019-02-21T14:22:44.280Z,40.88
2019-02-21T14:25:12.755Z,43.60
2019-02-21T14:27:41.135Z,42.73
2019-02-21T14:30:14.944Z,45.52
2019-02-21T14:32:43.316Z,34.92
2019-02-21T14:35:14.462Z,30.20
2019-02-21T14:37:42.869Z,26.75
2019-02-21T14:40:12.623Z,28.25
2019-02-21T14:42:41.011Z,29.42
2019-02-21T14:45:20.243Z,29.50
2019-02-21T14:47:48.638Z,27.45
2019-02-21T14:50:17.068Z,29.20
2019-02-21T14:52:45.500Z,31.07
2019-02-21T14:55:16.386Z,29.85
2019-02-21T14:57:44.779Z,29.90
2019-02-21T15:00:22.479Z,27.90
2019-02-21T15:02:50.947Z,25.00
2019-02-21T15:05:19.940Z,27.30
2019-02-21T15:07:48.417Z,26.62
2019-02-21T15:10:35.384Z,28.90
2019-02-21T15:13:03.819Z,28.20
2019-02-21T15:15:32.206Z,29.48
2019-02-21T15:18:07.530Z,27.82
2019-02-21T15:20:36.952Z,29.02
2019-02-21T15:23:00.700Z,31.05
2019-02-21T15:25:29.093Z,32.70
2019-02-21T15:27:57.507Z,32.73
2019-02-21T15:30:26.270Z,33.50
2019-02-21T15:32:54.650Z,34.20
2019-02-21T15:35:23.106Z,34.20
2019-02-21T15:37:51.482Z,35.90
2019-02-21T15:40:21.316Z,35.70
2019-02-21T15:42:52.746Z,38.02
2019-02-21T15:45:24.198Z,34.23
2019-02-21T15:47:52.941Z,36.53
2019-02-21T15:50:21.359Z,37.98
2019-02-21T15:52:52.578Z,40.67
2019-02-21T15:55:21.867Z,43.68
2019-02-21T15:57:50.343Z,42.67
2019-02-21T16:00:20.215Z,41.05
2019-02-21T16:02:48.624Z,39.85
2019-02-21T16:05:18.675Z,40.00
2019-02-21T16:07:47.049Z,37.67
2019-02-21T16:10:21.203Z,38.20
2019-02-21T16:12:50.158Z,37.95
2019-02-21T16:15:19.348Z,34.78
2019-02-21T16:17:47.706Z,31.55
2019-02-21T16:20:17.447Z,31.97
2019-02-21T16:22:45.860Z,28.87
2019-02-21T16:25:22.467Z,25.50
2019-02-21T16:27:50.835Z,26.05
2019-02-21T16:30:21.909Z,21.80
2019-02-21T16:32:49.316Z,19.90
2019-02-21T16:35:17.711Z,20.43
2019-02-21T16:37:46.122Z,18.40
2019-02-21T16:40:16.907Z,18.35
2019-02-21T16:42:45.336Z,18.10
2019-02-21T16:45:22.224Z,13.85
2019-02-21T16:47:50.910Z,14.47
2019-02-21T16:50:29.449Z,54.27
2019-02-21T16:52:49.397Z,14.43
2019-02-21T16:55:20.106Z,13.45
2019-02-21T16:57:48.563Z,14.20
2019-02-21T17:00:19.164Z,19.27
2019-02-21T17:02:47.549Z,12.70
2019-02-21T17:05:16.280Z,13.48
2019-02-21T17:07:44.651Z,14.03
2019-02-21T17:10:16.476Z,12.28
2019-02-21T17:12:44.965Z,15.70
2019-02-21T17:15:14.555Z,12.43
2019-02-21T17:17:42.933Z,13.72
2019-02-21T17:20:13.957Z,13.08
2019-02-21T17:22:42.472Z,13.78
2019-02-21T17:25:13.249Z,14.38
2019-02-21T17:27:41.596Z,14.68
2019-02-21T17:30:12.914Z,18.77
2019-02-21T17:32:42.974Z,16.05
2019-02-21T17:35:11.362Z,18.27
2019-02-21T17:37:39.817Z,17.98
2019-02-21T17:40:21.725Z,16.82
2019-02-21T17:42:50.816Z,18.35
2019-02-21T17:45:19.479Z,17.73
2019-02-21T17:47:47.838Z,18.70
2019-02-21T17:50:19.964Z,18.35
2019-02-21T17:52:48.356Z,18.23
2019-02-21T17:55:17.317Z,18.85
2019-02-21T17:57:45.753Z,18.23
2019-02-21T18:00:20.980Z,18.20
2019-02-21T18:02:50.708Z,19.50
2019-02-21T18:05:19.071Z,18.48
2019-02-21T18:07:47.429Z,19.40
2019-02-21T18:10:16.890Z,19.70
2019-02-21T18:12:45.273Z,19.37
2019-02-21T18:15:14.992Z,21.23
2019-02-21T18:17:43.481Z,21.33
2019-02-21T18:20:13.322Z,21.73
2019-02-21T18:22:41.751Z,20.88
2019-02-21T18:25:22.540Z,22.45
2019-02-21T18:27:52.170Z,24.72
2019-02-21T18:30:20.507Z,47.50
2019-02-21T18:32:48.896Z,25.70
2019-02-21T18:35:17.310Z,23.60
2019-02-21T18:37:47.732Z,25.00
2019-02-21T18:40:21.158Z,28.75
2019-02-21T18:42:49.683Z,25.10
2019-02-21T18:45:18.207Z,24.70
2019-02-21T18:47:46.571Z,24.63
2019-02-21T18:50:15.050Z,30.90
2019-02-21T18:52:43.447Z,25.77
2019-02-21T18:55:11.852Z,25.32
2019-02-21T18:57:40.361Z,32.23
2019-02-21T19:00:26.015Z,26.05
2019-02-21T19:02:54.440Z,35.05
2019-02-21T19:05:22.804Z,26.90
2019-02-21T19:08:00.441Z,23.30
2019-02-21T19:10:22.360Z,25.30
2019-02-21T19:12:51.077Z,25.27
2019-02-21T19:15:20.407Z,27.62
2019-02-21T19:17:48.830Z,27.70
2019-02-21T19:20:18.839Z,25.92
2019-02-21T19:22:47.214Z,25.95
2019-02-21T19:25:15.607Z,26.40
2019-02-21T19:27:44.039Z,25.23
2019-02-21T19:30:15.825Z,26.55
2019-02-21T19:32:44.257Z,27.15
2019-02-21T19:35:12.622Z,26.37
2019-02-21T19:37:42.682Z,26.55
2019-02-21T19:40:11.217Z,27.32
2019-02-21T19:42:39.646Z,40.98
2019-02-21T19:45:08.989Z,37.20
2019-02-21T19:47:37.375Z,32.15
2019-02-21T19:50:08.145Z,29.52
2019-02-21T19:52:37.130Z,29.07
2019-02-21T19:55:10.013Z,29.30
2019-02-21T19:57:39.500Z,35.13
2019-02-21T20:00:22.708Z,30.97
2019-02-21T20:02:50.753Z,28.20
2019-02-21T20:05:19.370Z,28.57
2019-02-21T20:07:47.784Z,31.93
2019-02-21T20:10:16.252Z,29.60
2019-02-21T20:12:44.646Z,31.02
2019-02-21T20:15:13.128Z,31.77
2019-02-21T20:17:41.656Z,30.80
2019-02-21T20:20:16.080Z,32.53
2019-02-21T20:22:44.507Z,32.03
2019-02-21T20:25:12.916Z,32.17
2019-02-21T20:27:41.299Z,30.80
2019-02-21T20:30:12.848Z,34.65
2019-02-21T20:32:41.255Z,35.08
2019-02-21T20:35:09.674Z,33.92
2019-02-21T20:37:38.051Z,35.35
2019-02-21T20:40:08.684Z,33.48
2019-02-21T20:42:37.074Z,32.53
2019-02-21T20:45:15.358Z,35.58
2019-02-21T20:47:43.760Z,35.45
2019-02-21T20:50:12.594Z,34.53
2019-02-21T20:52:41.253Z,37.58
2019-02-21T20:55:10.995Z,36.55
2019-02-21T20:57:39.525Z,41.18
2019-02-21T21:00:11.074Z,43.13
2019-02-21T21:02:39.450Z,44.10
2019-02-21T21:05:07.858Z,54.98
2019-02-21T21:07:36.232Z,49.10
2019-02-21T21:10:11.353Z,49.45
2019-02-21T21:12:39.369Z,48.60
2019-02-21T21:15:10.319Z,51.18
2019-02-21T21:17:38.659Z,58.10
2019-02-21T21:20:16.353Z,54.42
2019-02-21T21:22:39.451Z,53.98
2019-02-21T21:25:13.266Z,56.05
2019-02-21T21:27:41.691Z,108.90
2019-02-21T21:30:15.660Z,55.05
2019-02-21T21:32:44.082Z,54.90
2019-02-21T21:35:12.458Z,53.68
2019-02-21T21:37:40.869Z,52.30
2019-02-21T21:40:16.852Z,57.95
2019-02-21T21:42:45.270Z,52.50
2019-02-21T21:45:15.618Z,54.88
2019-02-21T21:47:44.050Z,53.23
2019-02-21T21:50:16.906Z,60.35
2019-02-21T21:52:45.316Z,60.17
2019-02-21T21:55:13.799Z,59.20
2019-02-21T21:57:42.124Z,61.42
2019-02-21T22:00:24.058Z,55.75
2019-02-21T22:02:52.445Z,60.80
2019-02-21T22:05:20.850Z,58.48
2019-02-21T22:07:49.650Z,64.00
2019-02-21T22:10:18.418Z,61.40
2019-02-21T22:12:47.268Z,55.40
2019-02-21T22:15:23.658Z,60.50
2019-02-21T22:17:52.108Z,63.28
2019-02-21T22:20:20.551Z,67.15
2019-02-21T22:22:48.899Z,55.92
2019-02-21T22:25:17.297Z,58.13
2019-02-21T22:27:45.729Z,58.55
2019-02-21T22:30:18.607Z,60.70
2019-02-21T22:32:47.111Z,63.90
2019-02-21T22:35:17.475Z,61.88
2019-02-21T22:37:45.874Z,61.40
2019-02-21T22:40:18.162Z,59.30
2019-02-21T22:42:46.573Z,62.10
2019-02-21T22:45:15.000Z,60.40
2019-02-21T22:47:48.833Z,62.30
2019-02-21T22:50:18.820Z,60.75
2019-02-21T22:52:47.238Z,55.20
2019-02-21T22:55:15.605Z,58.75
2019-02-21T22:57:44.022Z,56.88
2019-02-21T23:00:31.996Z,56.98
2019-02-21T23:03:01.189Z,58.40
2019-02-21T23:05:58.934Z,57.35
2019-02-21T23:08:42.570Z,59.50
2019-02-21T23:11:11.145Z,58.87
2019-02-21T23:13:39.520Z,48.05
2019-02-21T23:16:07.905Z,57.93
2019-02-21T23:18:36.306Z,59.50
2019-02-21T23:21:04.781Z,57.65
2019-02-21T23:23:33.177Z,58.87
2019-02-21T23:26:01.573Z,59.03
2019-02-21T23:28:30.021Z,62.03
2019-02-21T23:30:58.452Z,60.10
2019-02-21T23:33:27.706Z,56.90
2019-02-21T23:35:56.087Z,53.70
2019-02-21T23:38:24.499Z,58.60
2019-02-21T23:40:52.919Z,64.42
2019-02-21T23:43:21.302Z,56.48
2019-02-21T23:45:49.688Z,57.80
2019-02-21T23:48:18.112Z,55.35
2019-02-21T23:50:46.495Z,54.83
2019-02-21T23:53:14.971Z,49.63
2019-02-21T23:55:43.351Z,54.05
2019-02-21T23:58:11.740Z,53.83
